createdAt,value
2022-08-17T13:18:48.156Z,58.10
2022-08-17T13:19:51.588Z,58.00
2022-08-17T13:20:59.394Z,58.20
2022-08-17T13:22:04.278Z,57.00
2022-08-17T13:23:12.164Z,57.10
2022-08-17T13:24:22.393Z,57.40
2022-08-17T13:25:25.904Z,58.00
2022-08-17T13:26:51.097Z,58.30
2022-08-17T13:27:55.341Z,58.00
2022-08-17T13:28:58.214Z,58.00
2022-08-17T13:30:11.732Z,57.30
2022-08-17T13:31:28.543Z,57.60
2022-08-17T13:32:43.676Z,58.10
2022-08-17T13:33:46.647Z,58.80
2022-08-17T13:35:13.031Z,57.50
2022-08-17T13:36:30.456Z,57.60
2022-08-17T13:37:36.699Z,57.80
2022-08-17T13:38:47.254Z,57.90
2022-08-17T13:39:50.078Z,58.20
2022-08-17T13:40:53.442Z,58.20
2022-08-17T13:41:56.222Z,58.00
2022-08-17T13:42:59.078Z,57.40
2022-08-17T13:44:01.434Z,57.60
2022-08-17T13:45:35.695Z,58.30
2022-08-17T13:46:31.400Z,58.90
2022-08-17T13:47:34.431Z,58.50
2022-08-17T13:48:37.014Z,58.40
2022-08-17T13:49:48.408Z,58.40
2022-08-17T13:50:57.086Z,58.00
2022-08-17T13:51:59.287Z,58.20
2022-08-17T13:53:16.699Z,58.30
2022-08-17T13:54:32.430Z,57.90
2022-08-17T13:55:34.693Z,59.10
2022-08-17T13:56:45.326Z,59.60
2022-08-17T13:57:50.541Z,59.70
2022-08-17T13:59:53.239Z,59.40
2022-08-17T14:00:56.203Z,59.70
2022-08-17T14:01:59.514Z,60.10
2022-08-17T14:03:04.992Z,60.30
2022-08-17T14:04:11.455Z,60.00
2022-08-17T14:05:13.645Z,59.30
2022-08-17T14:06:52.203Z,59.00
2022-08-17T14:07:40.765Z,58.00
2022-08-17T14:08:42.978Z,58.70
2022-08-17T14:09:54.830Z,59.00
2022-08-17T14:10:58.749Z,59.60
2022-08-17T14:12:02.964Z,59.70
2022-08-17T14:13:07.388Z,59.00
2022-08-17T14:14:09.699Z,57.50
2022-08-17T14:15:19.527Z,55.90
2022-08-17T14:16:22.236Z,56.10
2022-08-17T14:17:26.141Z,57.10
2022-08-17T14:18:31.247Z,57.80
2022-08-17T14:19:51.047Z,59.00
2022-08-17T14:20:53.874Z,59.90
2022-08-17T14:21:59.089Z,60.80
2022-08-17T14:23:01.206Z,61.20
2022-08-17T14:24:04.153Z,60.80
2022-08-17T14:25:10.543Z,61.70
2022-08-17T14:26:13.007Z,62.30
2022-08-17T14:27:17.846Z,62.20
2022-08-17T14:28:20.094Z,62.70
2022-08-17T14:29:24.333Z,62.80
2022-08-17T14:30:29.903Z,62.40
2022-08-17T14:31:36.909Z,62.10
2022-08-17T14:32:43.254Z,60.00
2022-08-17T14:33:45.403Z,58.80
2022-08-17T14:34:49.747Z,59.60
2022-08-17T14:35:53.664Z,60.00
2022-08-17T14:36:57.170Z,60.70
2022-08-17T14:37:59.530Z,58.60
2022-08-17T14:39:01.721Z,59.90
2022-08-17T14:40:09.887Z,58.20
2022-08-17T14:41:12.155Z,60.50
2022-08-17T14:42:15.600Z,61.40
2022-08-17T14:43:18.126Z,61.00
2022-08-17T14:44:20.373Z,62.40
2022-08-17T14:45:30.003Z,62.60
2022-08-17T14:46:35.293Z,62.70
2022-08-17T14:47:39.042Z,62.00
2022-08-17T14:48:41.305Z,62.30
2022-08-17T14:49:43.809Z,63.10
2022-08-17T14:50:49.830Z,63.50
2022-08-17T14:51:52.322Z,62.80
2022-08-17T14:52:56.143Z,61.30
2022-08-17T14:54:00.505Z,61.70
2022-08-17T14:55:02.893Z,60.90
2022-08-17T14:56:05.180Z,61.80
2022-08-17T14:57:23.301Z,60.20
2022-08-17T14:58:29.999Z,58.70
2022-08-17T14:59:32.244Z,59.60
2022-08-17T15:00:34.720Z,63.60
2022-08-17T15:01:37.013Z,64.80
2022-08-17T15:02:55.250Z,66.40
2022-08-17T15:03:57.468Z,67.40
2022-08-17T15:05:05.384Z,67.80
2022-08-17T15:06:10.138Z,65.30
2022-08-17T15:07:12.630Z,64.80
2022-08-17T15:08:18.060Z,66.70
2022-08-17T15:09:20.279Z,67.90
2022-08-17T15:10:25.843Z,67.90
2022-08-17T15:11:28.293Z,68.70
2022-08-17T15:12:33.687Z,69.00
2022-08-17T15:13:37.541Z,69.60
2022-08-17T15:14:55.309Z,69.60
2022-08-17T15:16:00.108Z,69.90
2022-08-17T15:17:03.938Z,70.00
2022-08-17T15:18:08.400Z,70.60
2022-08-17T15:19:10.886Z,71.10
2022-08-17T15:20:16.704Z,71.20
2022-08-17T15:21:19.458Z,71.40
2022-08-17T15:22:27.265Z,72.10
2022-08-17T15:23:32.069Z,72.10
2022-08-17T15:24:34.214Z,72.00
2022-08-17T15:25:36.485Z,71.00
2022-08-17T15:26:39.189Z,71.20
2022-08-17T15:27:42.054Z,71.70
2022-08-17T15:28:44.181Z,72.50
2022-08-17T15:29:54.411Z,73.00
2022-08-17T15:30:56.558Z,72.60
2022-08-17T15:32:00.995Z,72.90
2022-08-17T15:33:03.724Z,72.80
2022-08-17T15:34:07.947Z,73.40
2022-08-17T15:35:12.638Z,72.50
2022-08-17T15:36:15.582Z,73.70
2022-08-17T15:37:17.791Z,73.60
2022-08-17T15:38:20.500Z,73.60
2022-08-17T15:39:22.667Z,74.00
2022-08-17T15:40:25.510Z,74.30
2022-08-17T15:41:28.275Z,72.80
2022-08-17T15:42:30.496Z,74.60
2022-08-17T15:43:32.781Z,75.00
2022-08-17T15:44:39.859Z,75.00
2022-08-17T15:45:43.010Z,75.20
2022-08-17T15:46:45.306Z,74.40
2022-08-17T15:47:49.758Z,75.00
2022-08-17T15:48:54.946Z,75.50
2022-08-17T15:50:00.109Z,76.00
2022-08-17T15:51:02.693Z,76.60
2022-08-17T15:52:27.104Z,77.70
2022-08-17T15:53:29.717Z,77.40
2022-08-17T15:54:34.554Z,77.80
2022-08-17T15:55:38.783Z,78.10
2022-08-17T15:56:41.037Z,79.00
2022-08-17T15:57:43.295Z,79.60
2022-08-17T15:58:46.940Z,80.20
2022-08-17T15:59:53.977Z,80.10
2022-08-17T16:01:18.229Z,80.40
2022-08-17T16:03:14.736Z,80.50
2022-08-17T16:04:05.156Z,80.10
2022-08-17T16:05:24.178Z,78.80
2022-08-17T16:06:27.689Z,81.70
2022-08-17T16:07:33.417Z,82.50
2022-08-17T16:08:36.797Z,82.00
2022-08-17T16:09:38.988Z,82.50
2022-08-17T16:10:41.468Z,82.60
2022-08-17T16:11:46.133Z,82.60
2022-08-17T16:12:55.964Z,80.80
2022-08-17T16:13:58.185Z,80.00
2022-08-17T16:15:03.413Z,78.50
2022-08-17T16:16:06.924Z,77.00
2022-08-17T16:17:38.594Z,77.80
2022-08-17T16:18:32.649Z,78.40
2022-08-17T16:19:34.870Z,78.30
2022-08-17T16:20:37.110Z,77.60
2022-08-17T16:21:42.852Z,77.60
2022-08-17T16:22:46.428Z,76.30
2022-08-17T16:23:51.676Z,76.80
2022-08-17T16:24:57.122Z,80.30
2022-08-17T16:26:00.228Z,81.60
2022-08-17T16:27:03.191Z,81.70
2022-08-17T16:28:15.738Z,83.30
2022-08-17T16:29:18.020Z,84.20
2022-08-17T16:30:22.916Z,84.10
2022-08-17T16:31:25.237Z,81.20
2022-08-17T16:32:31.833Z,76.50
2022-08-17T16:33:36.052Z,76.50
2022-08-17T16:34:38.245Z,71.20
2022-08-17T16:35:42.021Z,71.90
2022-08-17T16:36:55.028Z,72.80
2022-08-17T16:37:58.857Z,75.60
2022-08-17T16:39:01.550Z,78.90
2022-08-17T16:40:08.001Z,81.30
2022-08-17T16:41:10.406Z,83.60
2022-08-17T16:42:31.191Z,86.30
2022-08-17T16:43:34.838Z,87.90
2022-08-17T16:44:37.741Z,88.40
2022-08-17T16:45:40.817Z,88.30
2022-08-17T16:46:45.386Z,88.90
2022-08-17T16:47:50.221Z,89.20
2022-08-17T16:48:52.415Z,89.10
2022-08-17T16:49:55.104Z,89.60
2022-08-17T16:51:03.555Z,89.90
2022-08-17T16:52:11.926Z,90.00
2022-08-17T16:53:18.036Z,90.20
2022-08-17T16:54:21.478Z,90.50
2022-08-17T16:55:23.655Z,90.70
2022-08-17T16:56:26.015Z,90.50
2022-08-17T16:57:29.950Z,90.70
2022-08-17T16:58:32.197Z,90.70
2022-08-17T16:59:40.789Z,91.00
2022-08-17T17:00:48.775Z,91.10
2022-08-17T17:01:51.019Z,91.00
2022-08-17T17:02:57.007Z,91.20
2022-08-17T17:04:04.594Z,91.20
2022-08-17T17:05:44.008Z,91.00
2022-08-17T17:07:33.954Z,91.20
2022-08-17T17:08:40.698Z,91.40
2022-08-17T17:09:49.068Z,91.40
2022-08-17T17:10:56.765Z,91.80
2022-08-17T17:12:02.001Z,91.90
2022-08-17T17:13:11.323Z,92.00
2022-08-17T17:14:22.933Z,92.00
2022-08-17T17:15:33.163Z,92.10
2022-08-17T17:16:51.533Z,92.10
2022-08-17T17:18:04.257Z,92.20
2022-08-17T17:19:18.024Z,92.30
2022-08-17T17:20:47.575Z,92.40
2022-08-17T17:22:15.544Z,92.50
2022-08-17T17:23:39.287Z,92.30
2022-08-17T17:25:07.958Z,92.50
2022-08-17T17:26:36.365Z,92.80
2022-08-17T17:27:54.104Z,92.90
2022-08-17T17:29:27.796Z,93.00
2022-08-17T17:30:56.799Z,93.00
2022-08-17T17:32:13.723Z,93.00
2022-08-17T17:33:24.847Z,93.10
2022-08-17T17:34:31.986Z,93.00
2022-08-17T17:35:59.432Z,93.00
2022-08-17T17:37:12.627Z,92.90
2022-08-17T17:38:33.257Z,92.70
2022-08-17T17:39:51.405Z,92.70
2022-08-17T17:41:02.440Z,92.80
2022-08-17T17:42:08.802Z,92.70
2022-08-17T17:43:37.878Z,92.80
2022-08-17T17:44:43.735Z,92.80
2022-08-17T17:46:28.237Z,92.90
2022-08-17T17:47:31.979Z,92.50
2022-08-17T17:48:34.349Z,92.40
2022-08-17T17:49:46.103Z,92.50
2022-08-17T17:50:56.738Z,92.60
2022-08-17T17:52:19.468Z,92.80
2022-08-17T17:53:35.051Z,92.70
2022-08-17T17:55:16.604Z,92.60
2022-08-17T17:56:39.881Z,92.70
2022-08-17T17:57:56.012Z,93.00
2022-08-17T17:59:12.755Z,93.10
2022-08-17T18:00:47.605Z,93.00
